Terminal Aerodrome Forecast
Issued by NWS Sterling, VA

Home | Current Version | Previous Version | Text Only | Print | Product List | Glossary On
Versions: 1 2 3 4 5 6 7 8 9 10 11 12 13 14
000
FTUS41 KLWX 220500
TAFMRB
TAF
KMRB 220520Z 2206/2306 00000KT P6SM SKC
     FM221500 18006KT P6SM FEW250
     FM222000 18008KT P6SM BKN090
     FM222300 17006KT P6SM BKN050
     FM230400 19004KT P6SM BKN090=

USA.gov is the U.S. government's official web portal to all federal, state and local government web resources and services.